createdAt,value
2023-03-19T00:00:23.099Z,18.25
2023-03-19T00:02:50.755Z,18.42
2023-03-19T00:05:17.396Z,16.50
2023-03-19T00:07:43.417Z,14.80
2023-03-19T00:10:09.356Z,19.08
2023-03-19T00:12:35.475Z,16.23
2023-03-19T00:15:01.294Z,17.08
2023-03-19T00:17:27.218Z,19.17
2023-03-19T00:19:53.596Z,15.85
2023-03-19T00:22:19.425Z,21.50
2023-03-19T00:24:45.238Z,16.55
2023-03-19T00:27:11.402Z,24.52
2023-03-19T00:29:37.176Z,16.23
2023-03-19T00:32:02.988Z,13.90
2023-03-19T00:34:28.743Z,18.50
2023-03-19T00:36:55.704Z,18.13
2023-03-19T00:39:21.419Z,16.52
2023-03-19T00:41:49.743Z,16.48
2023-03-19T00:44:18.560Z,16.02
2023-03-19T00:46:45.090Z,15.45
2023-03-19T00:49:10.897Z,17.35
2023-03-19T00:51:36.629Z,16.77
2023-03-19T00:54:02.341Z,16.00
2023-03-19T00:56:28.045Z,15.77
2023-03-19T00:58:55.556Z,18.73
2023-03-19T01:01:21.298Z,14.95
2023-03-19T01:03:47.119Z,17.85
2023-03-19T01:06:13.259Z,14.48
2023-03-19T01:08:39.064Z,17.85
2023-03-19T01:11:08.663Z,17.25
2023-03-19T01:13:34.694Z,17.58
2023-03-19T01:16:00.598Z,14.85
2023-03-19T01:18:26.439Z,15.52
2023-03-19T01:20:52.279Z,21.25
2023-03-19T01:23:17.978Z,17.45
2023-03-19T01:25:43.701Z,15.15
2023-03-19T01:28:09.418Z,15.60
2023-03-19T01:30:35.864Z,13.60
2023-03-19T01:33:01.840Z,14.23
2023-03-19T01:35:28.247Z,20.20
2023-03-19T01:37:53.965Z,15.60
2023-03-19T01:40:20.302Z,17.67
2023-03-19T01:42:52.931Z,16.23
2023-03-19T01:45:35.354Z,16.65
2023-03-19T01:48:01.417Z,16.67
2023-03-19T01:50:31.173Z,13.45
2023-03-19T01:52:57.192Z,18.13
2023-03-19T01:55:23.028Z,14.65
2023-03-19T01:57:48.837Z,14.35
2023-03-19T02:00:15.485Z,20.02
2023-03-19T02:02:43.161Z,12.75
2023-03-19T02:05:10.731Z,14.52
2023-03-19T02:07:37.715Z,15.90
2023-03-19T02:10:06.554Z,15.38
2023-03-19T02:12:32.550Z,16.02
2023-03-19T02:14:58.541Z,15.98
2023-03-19T02:17:24.718Z,13.57
2023-03-19T02:19:59.432Z,14.93
2023-03-19T02:22:26.358Z,17.50
2023-03-19T02:24:55.237Z,15.88
2023-03-19T02:27:21.459Z,13.30
2023-03-19T02:29:49.277Z,16.48
2023-03-19T02:32:15.561Z,13.52
2023-03-19T02:34:42.762Z,17.45
2023-03-19T02:37:20.560Z,19.58
2023-03-19T02:39:49.233Z,16.85
2023-03-19T02:42:16.188Z,17.48
2023-03-19T02:44:42.192Z,16.75
2023-03-19T02:47:07.976Z,16.58
2023-03-19T02:49:33.799Z,14.30
2023-03-19T02:52:00.053Z,16.80
2023-03-19T02:54:26.569Z,15.07
2023-03-19T02:56:52.648Z,14.30
2023-03-19T02:59:18.974Z,13.50
2023-03-19T03:01:44.756Z,14.60
2023-03-19T03:04:10.527Z,19.65
2023-03-19T03:06:36.714Z,15.23
2023-03-19T03:09:02.990Z,14.05
2023-03-19T03:11:28.800Z,16.88
2023-03-19T03:13:54.519Z,16.35
2023-03-19T03:16:21.011Z,20.15
2023-03-19T03:18:46.811Z,15.77
2023-03-19T03:21:12.531Z,14.63
2023-03-19T03:23:38.255Z,14.50
2023-03-19T03:26:04.018Z,16.77
2023-03-19T03:28:29.776Z,15.57
2023-03-19T03:30:59.240Z,16.80
2023-03-19T03:33:25.092Z,15.38
2023-03-19T03:35:51.089Z,16.92
2023-03-19T03:38:17.564Z,21.33
2023-03-19T03:40:43.443Z,18.05
2023-03-19T03:43:09.954Z,18.70
2023-03-19T03:45:36.208Z,21.38
2023-03-19T03:48:02.223Z,19.52
2023-03-19T03:50:27.978Z,23.38
2023-03-19T03:52:53.744Z,16.17
2023-03-19T03:55:19.740Z,14.63
2023-03-19T03:57:45.497Z,18.50
2023-03-19T04:00:11.910Z,17.63
2023-03-19T04:02:37.703Z,18.23
2023-03-19T04:05:03.634Z,18.30
2023-03-19T04:07:29.369Z,18.55
2023-03-19T04:09:56.470Z,18.38
2023-03-19T04:12:22.234Z,21.92
2023-03-19T04:14:47.988Z,16.77
2023-03-19T04:17:13.696Z,19.92
2023-03-19T04:19:39.579Z,17.65
2023-03-19T04:22:07.064Z,17.27
2023-03-19T04:24:32.763Z,17.30
2023-03-19T04:26:58.522Z,18.27
2023-03-19T04:29:24.251Z,16.80
2023-03-19T04:31:50.472Z,16.85
2023-03-19T04:34:16.894Z,19.77
2023-03-19T04:36:43.334Z,23.95
2023-03-19T04:39:09.443Z,25.63
2023-03-19T04:41:35.318Z,21.73
2023-03-19T04:44:01.584Z,22.30
2023-03-19T04:46:27.360Z,23.40
2023-03-19T04:48:53.234Z,22.60
2023-03-19T04:51:20.793Z,22.75
2023-03-19T04:53:46.971Z,24.75
2023-03-19T04:56:15.520Z,22.42
2023-03-19T04:58:41.774Z,21.17
2023-03-19T05:01:07.534Z,24.33
2023-03-19T05:03:33.340Z,21.17
2023-03-19T05:05:59.154Z,27.13
2023-03-19T05:08:24.901Z,21.40
2023-03-19T05:10:50.651Z,20.15
2023-03-19T05:13:16.594Z,22.70
2023-03-19T05:15:42.943Z,21.08
2023-03-19T05:18:08.692Z,24.60
2023-03-19T05:20:35.264Z,19.88
2023-03-19T05:23:01.195Z,23.15
2023-03-19T05:25:26.964Z,20.98
2023-03-19T05:27:52.725Z,24.65
2023-03-19T05:30:18.523Z,30.00
2023-03-19T05:32:45.850Z,23.60
2023-03-19T05:35:12.276Z,24.83
2023-03-19T05:37:38.231Z,21.33
2023-03-19T05:40:04.616Z,21.70
2023-03-19T05:42:30.623Z,22.40
2023-03-19T05:44:56.352Z,20.95
2023-03-19T05:47:22.095Z,20.58
2023-03-19T05:49:47.836Z,22.67
2023-03-19T05:52:13.596Z,24.27
2023-03-19T05:54:40.637Z,20.10
2023-03-19T05:57:06.993Z,18.05
2023-03-19T05:59:32.875Z,20.13
2023-03-19T06:01:58.738Z,29.90
2023-03-19T06:04:25.176Z,23.10
2023-03-19T06:06:51.183Z,20.02
2023-03-19T06:09:16.935Z,25.40
2023-03-19T06:11:42.740Z,18.52
2023-03-19T06:14:08.653Z,17.67
2023-03-19T06:16:34.777Z,18.02
2023-03-19T06:19:00.639Z,20.40
2023-03-19T06:21:29.020Z,25.15
2023-03-19T06:23:55.748Z,18.67
2023-03-19T06:26:21.702Z,20.17
2023-03-19T06:28:47.619Z,23.27
2023-03-19T06:31:13.582Z,21.85
2023-03-19T06:33:49.696Z,17.85
2023-03-19T06:36:15.826Z,22.50
2023-03-19T06:38:41.557Z,19.05
2023-03-19T06:41:07.375Z,21.88
2023-03-19T06:43:36.442Z,20.40
2023-03-19T06:46:03.149Z,19.02
2023-03-19T06:48:28.960Z,17.63
2023-03-19T06:50:54.890Z,19.98
2023-03-19T06:53:20.968Z,18.05
2023-03-19T06:55:46.880Z,23.05
2023-03-19T06:58:12.652Z,25.52
2023-03-19T07:00:38.374Z,19.52
2023-03-19T07:03:04.177Z,21.35
2023-03-19T07:05:29.952Z,25.63
2023-03-19T07:07:55.690Z,27.80
2023-03-19T07:10:21.983Z,22.35
2023-03-19T07:12:47.855Z,21.52
2023-03-19T07:15:14.481Z,22.40
2023-03-19T07:17:40.547Z,26.30
2023-03-19T07:20:06.421Z,29.60
2023-03-19T07:22:32.155Z,24.83
2023-03-19T07:24:57.885Z,25.30
2023-03-19T07:27:23.684Z,27.80
2023-03-19T07:29:49.427Z,22.73
2023-03-19T07:32:15.161Z,24.67
2023-03-19T07:34:41.080Z,26.20
2023-03-19T07:37:06.932Z,27.17
2023-03-19T07:39:33.369Z,23.40
2023-03-19T07:41:59.070Z,26.23
2023-03-19T07:44:24.862Z,27.00
2023-03-19T07:46:50.609Z,21.05
2023-03-19T07:49:16.615Z,22.50
2023-03-19T07:51:42.478Z,23.58
2023-03-19T07:54:08.354Z,27.27
2023-03-19T07:56:34.318Z,23.98
2023-03-19T07:59:00.268Z,21.42
2023-03-19T08:01:26.109Z,18.45
2023-03-19T08:03:52.258Z,21.25
2023-03-19T08:06:18.042Z,18.17
2023-03-19T08:08:43.839Z,18.17
2023-03-19T08:11:09.791Z,25.35
2023-03-19T08:13:35.746Z,24.38
2023-03-19T08:16:01.738Z,24.85
2023-03-19T08:18:28.792Z,26.77
2023-03-19T08:20:54.616Z,22.70
2023-03-19T08:23:20.481Z,24.48
2023-03-19T08:25:46.330Z,23.60
2023-03-19T08:28:12.636Z,23.15
2023-03-19T08:30:40.265Z,27.15
2023-03-19T08:33:18.565Z,21.67
2023-03-19T08:35:44.800Z,22.90
2023-03-19T08:38:10.776Z,26.52
2023-03-19T08:40:40.401Z,23.55
2023-03-19T08:43:07.585Z,25.75
2023-03-19T08:45:33.703Z,21.92
2023-03-19T08:47:59.784Z,22.77
2023-03-19T08:50:26.647Z,24.25
2023-03-19T08:52:52.588Z,21.17
2023-03-19T08:55:18.606Z,22.58
2023-03-19T08:57:45.610Z,19.77
2023-03-19T09:00:12.177Z,19.20
2023-03-19T09:02:38.119Z,19.48
2023-03-19T09:05:04.027Z,16.30
2023-03-19T09:07:29.979Z,21.85
2023-03-19T09:09:55.821Z,24.35
2023-03-19T09:12:21.663Z,18.35
2023-03-19T09:14:47.550Z,22.63
2023-03-19T09:17:14.846Z,23.08
2023-03-19T09:19:41.757Z,16.90
2023-03-19T09:22:07.528Z,21.20
2023-03-19T09:24:33.457Z,19.13
2023-03-19T09:26:59.411Z,18.52
2023-03-19T09:29:25.434Z,21.33
2023-03-19T09:31:51.518Z,17.50
2023-03-19T09:34:18.049Z,18.20
2023-03-19T09:36:44.131Z,17.75
2023-03-19T09:39:10.206Z,17.45
2023-03-19T09:41:42.052Z,16.90
2023-03-19T09:44:11.946Z,16.95
2023-03-19T09:46:42.770Z,15.88
2023-03-19T09:51:44.403Z,13.77
2023-03-19T09:54:22.607Z,15.68
2023-03-19T09:56:48.578Z,13.55
2023-03-19T09:59:14.715Z,14.48
2023-03-19T10:01:48.283Z,14.88
2023-03-19T10:04:25.525Z,17.60
2023-03-19T10:06:55.746Z,14.90
2023-03-19T10:09:35.073Z,18.13
2023-03-19T10:12:04.100Z,13.52
2023-03-19T10:14:29.958Z,12.80
2023-03-19T10:16:57.731Z,14.02
2023-03-19T10:19:27.334Z,19.08
2023-03-19T10:21:59.151Z,12.25
2023-03-19T10:24:34.074Z,11.95
2023-03-19T10:27:02.304Z,12.60
2023-03-19T10:29:29.536Z,12.15
2023-03-19T10:32:11.359Z,13.52
2023-03-19T10:34:40.360Z,11.85
2023-03-19T10:37:13.707Z,10.40
2023-03-19T10:39:41.506Z,9.52
2023-03-19T10:42:07.785Z,9.82
2023-03-19T10:44:39.402Z,11.77
2023-03-19T10:47:15.344Z,9.95
2023-03-19T10:49:41.491Z,14.40
2023-03-19T10:52:17.372Z,10.18
2023-03-19T10:54:44.452Z,11.68
2023-03-19T10:57:24.737Z,12.93
2023-03-19T10:59:50.881Z,10.57
2023-03-19T11:02:26.290Z,9.90
2023-03-19T11:05:11.720Z,10.82
2023-03-19T11:07:37.896Z,11.82
2023-03-19T11:10:04.428Z,12.48
2023-03-19T11:12:36.801Z,10.15
2023-03-19T11:15:14.307Z,11.15
2023-03-19T11:17:47.140Z,9.55
2023-03-19T11:20:22.007Z,10.07
2023-03-19T11:22:48.233Z,8.80
2023-03-19T11:25:18.318Z,9.65
2023-03-19T11:27:45.290Z,11.10
2023-03-19T11:30:17.186Z,9.60
2023-03-19T11:33:30.394Z,9.68
2023-03-19T11:36:05.229Z,9.90
2023-03-19T11:38:42.707Z,11.90
2023-03-19T11:41:13.206Z,8.75
2023-03-19T11:43:39.144Z,10.68
2023-03-19T11:46:18.888Z,10.60
2023-03-19T11:49:20.445Z,10.97
2023-03-19T11:51:59.250Z,8.98
2023-03-19T11:54:25.773Z,10.82
2023-03-19T11:57:03.533Z,12.20
2023-03-19T11:59:47.786Z,11.05
2023-03-19T12:02:32.627Z,8.80
2023-03-19T12:05:17.067Z,7.97
2023-03-19T12:07:52.644Z,8.02
2023-03-19T12:10:18.561Z,9.55
2023-03-19T12:12:44.318Z,11.30
2023-03-19T12:15:30.634Z,9.70
2023-03-19T12:18:18.201Z,8.90
2023-03-19T12:21:06.732Z,9.75
2023-03-19T12:23:50.154Z,10.57
2023-03-19T12:26:19.514Z,12.13
2023-03-19T12:28:54.106Z,9.73
2023-03-19T12:31:31.227Z,12.05
2023-03-19T12:34:00.400Z,10.13
2023-03-19T12:36:28.918Z,13.00
2023-03-19T12:39:04.622Z,9.60
2023-03-19T12:41:32.486Z,8.52
2023-03-19T12:44:02.736Z,9.00
2023-03-19T12:46:33.269Z,10.18
2023-03-19T12:49:08.870Z,9.52
2023-03-19T12:51:36.356Z,9.15
2023-03-19T12:54:05.450Z,11.73
2023-03-19T12:56:33.612Z,9.80
2023-03-19T12:59:03.458Z,8.93
2023-03-19T13:01:41.807Z,12.43
2023-03-19T13:04:16.005Z,9.35
2023-03-19T13:06:51.715Z,10.05
2023-03-19T13:09:44.285Z,11.70
2023-03-19T13:12:12.634Z,7.65
2023-03-19T13:14:44.504Z,7.55
2023-03-19T13:17:22.678Z,7.60
2023-03-19T13:19:53.867Z,6.60
2023-03-19T13:22:28.481Z,7.10
2023-03-19T13:24:54.912Z,7.15
2023-03-19T13:27:22.236Z,9.32
2023-03-19T13:29:54.302Z,9.02
2023-03-19T13:33:01.308Z,7.72
2023-03-19T13:35:33.255Z,6.82
2023-03-19T13:38:18.272Z,11.32
2023-03-19T13:40:52.053Z,6.82
2023-03-19T13:43:28.544Z,8.27
2023-03-19T13:46:13.159Z,8.25
2023-03-19T13:48:45.209Z,9.65
2023-03-19T13:51:17.983Z,12.05
2023-03-19T13:53:54.701Z,6.80
2023-03-19T13:56:29.872Z,8.40
2023-03-19T13:59:14.574Z,7.95
2023-03-19T14:01:41.268Z,7.75
2023-03-19T14:04:27.275Z,8.65
2023-03-19T14:06:55.824Z,8.45
2023-03-19T14:09:36.943Z,6.45
2023-03-19T14:12:20.647Z,7.20
2023-03-19T14:14:48.421Z,7.75
2023-03-19T14:17:15.984Z,8.82
2023-03-19T14:19:42.220Z,8.35
2023-03-19T14:22:10.198Z,7.93
2023-03-19T14:24:57.115Z,8.75
2023-03-19T14:27:27.127Z,8.73
2023-03-19T14:29:54.004Z,8.63
2023-03-19T14:32:29.512Z,10.23
2023-03-19T14:34:55.697Z,8.68
2023-03-19T14:37:27.639Z,6.45
2023-03-19T14:39:57.470Z,11.40
2023-03-19T14:42:43.672Z,6.53
2023-03-19T14:45:14.210Z,7.38
2023-03-19T14:47:59.161Z,9.13
2023-03-19T14:50:44.132Z,6.80
2023-03-19T14:53:14.148Z,6.75
2023-03-19T14:55:42.623Z,7.35
2023-03-19T14:58:09.881Z,14.63
2023-03-19T15:00:43.537Z,7.32
2023-03-19T15:03:21.503Z,8.27
2023-03-19T15:05:51.169Z,9.30
2023-03-19T15:08:21.767Z,8.33
2023-03-19T15:10:55.467Z,11.68
2023-03-19T15:13:27.585Z,8.77
2023-03-19T15:16:00.111Z,8.57
2023-03-19T15:18:26.360Z,9.40
2023-03-19T15:20:57.491Z,8.05
2023-03-19T15:23:28.231Z,9.68
2023-03-19T15:25:57.871Z,9.45
2023-03-19T15:28:25.530Z,7.78
2023-03-19T15:31:05.741Z,8.60
2023-03-19T15:33:44.624Z,7.07
2023-03-19T15:36:24.099Z,9.73
2023-03-19T15:38:58.094Z,8.20
2023-03-19T15:41:25.108Z,7.90
2023-03-19T15:43:51.427Z,8.93
2023-03-19T15:46:20.407Z,9.13
2023-03-19T15:48:49.111Z,9.73
2023-03-19T15:51:15.708Z,8.30
2023-03-19T15:53:42.821Z,10.43
2023-03-19T15:56:09.352Z,8.60
2023-03-19T15:58:40.926Z,7.05
2023-03-19T16:01:08.797Z,12.85
2023-03-19T16:03:57.981Z,9.45
2023-03-19T16:06:27.257Z,6.47
2023-03-19T16:08:54.432Z,12.63
2023-03-19T16:11:30.377Z,12.80
2023-03-19T16:13:57.745Z,10.27
2023-03-19T16:16:24.530Z,10.55
2023-03-19T16:18:52.508Z,13.57
2023-03-19T16:21:38.865Z,12.93
2023-03-19T16:24:07.552Z,12.02
2023-03-19T16:26:33.615Z,10.55
2023-03-19T16:29:10.689Z,13.38
2023-03-19T16:31:53.053Z,8.07
2023-03-19T16:34:23.157Z,9.43
2023-03-19T16:36:48.921Z,8.93
2023-03-19T16:39:29.984Z,15.07
2023-03-19T16:42:07.997Z,9.02
2023-03-19T16:44:34.632Z,8.98
2023-03-19T16:47:01.949Z,11.77
2023-03-19T16:49:27.999Z,10.18
2023-03-19T16:51:53.864Z,15.10
2023-03-19T16:54:19.725Z,10.73
2023-03-19T16:56:45.879Z,9.65
2023-03-19T16:59:19.075Z,10.52
2023-03-19T17:01:48.097Z,11.27
2023-03-19T17:04:17.056Z,10.95
2023-03-19T17:06:43.196Z,11.32
2023-03-19T17:09:08.945Z,9.88
2023-03-19T17:11:38.084Z,12.02
2023-03-19T17:14:05.835Z,10.35
2023-03-19T17:16:31.917Z,13.90
2023-03-19T17:18:58.136Z,12.23
2023-03-19T17:21:28.818Z,14.23
2023-03-19T17:26:26.046Z,12.48
2023-03-19T17:28:53.083Z,12.90
2023-03-19T17:31:29.346Z,13.25
2023-03-19T17:34:17.194Z,14.25
2023-03-19T17:36:50.695Z,17.40
2023-03-19T17:39:16.552Z,13.52
2023-03-19T17:41:42.481Z,13.23
2023-03-19T17:44:08.423Z,14.45
2023-03-19T17:46:39.107Z,12.35
2023-03-19T17:51:30.689Z,14.73
2023-03-19T17:53:56.961Z,13.00
2023-03-19T17:56:26.672Z,14.60
2023-03-19T17:58:53.146Z,13.07
2023-03-19T18:01:24.205Z,9.65
2023-03-19T18:03:50.795Z,12.27
2023-03-19T18:06:20.804Z,9.98
2023-03-19T18:08:47.359Z,11.05
2023-03-19T18:11:13.899Z,11.20
2023-03-19T18:13:41.393Z,9.20
2023-03-19T18:16:21.776Z,10.88
2023-03-19T18:18:48.821Z,10.60
2023-03-19T18:21:14.883Z,12.45
2023-03-19T18:23:41.108Z,10.73
2023-03-19T18:26:07.006Z,13.90
2023-03-19T18:28:33.436Z,13.20
2023-03-19T18:31:00.188Z,11.38
2023-03-19T18:33:28.032Z,9.63
2023-03-19T18:35:55.461Z,12.50
2023-03-19T18:38:22.713Z,12.82
2023-03-19T18:40:49.088Z,9.98
2023-03-19T18:43:16.309Z,9.13
2023-03-19T18:45:42.805Z,15.07
2023-03-19T18:48:16.403Z,10.15
2023-03-19T18:50:42.771Z,9.95
2023-03-19T18:53:10.712Z,11.18
2023-03-19T18:55:36.501Z,9.80
2023-03-19T18:58:02.607Z,10.98
2023-03-19T19:00:32.801Z,13.07
2023-03-19T19:02:59.268Z,7.45
2023-03-19T19:05:27.083Z,7.65
2023-03-19T19:07:53.732Z,12.98
2023-03-19T19:10:20.459Z,10.13
2023-03-19T19:12:50.125Z,8.32
2023-03-19T19:15:22.904Z,7.68
2023-03-19T19:17:48.982Z,7.72
2023-03-19T19:20:16.662Z,6.80
2023-03-19T19:22:42.740Z,9.80
2023-03-19T19:25:09.830Z,7.40
2023-03-19T19:27:35.761Z,7.00
2023-03-19T19:30:01.594Z,7.03
2023-03-19T19:32:29.147Z,7.97
2023-03-19T19:34:55.080Z,7.90
2023-03-19T19:37:22.493Z,8.15
2023-03-19T19:39:48.935Z,9.82
2023-03-19T19:42:17.310Z,8.70
2023-03-19T19:44:45.384Z,10.35
2023-03-19T19:47:15.299Z,7.15
2023-03-19T19:49:41.680Z,12.30
2023-03-19T19:52:14.974Z,5.53
2023-03-19T19:54:40.848Z,8.35
2023-03-19T19:57:21.732Z,5.93
2023-03-19T19:59:48.333Z,6.03
2023-03-19T20:02:21.917Z,7.70
2023-03-19T20:04:48.093Z,6.43
2023-03-19T20:07:14.018Z,8.38
2023-03-19T20:09:40.085Z,5.53
2023-03-19T20:12:17.096Z,9.65
2023-03-19T20:14:43.928Z,6.95
2023-03-19T20:17:13.169Z,6.97
2023-03-19T20:19:38.916Z,6.55
2023-03-19T20:22:04.885Z,6.88
2023-03-19T20:24:30.638Z,7.20
2023-03-19T20:26:59.234Z,5.38
2023-03-19T20:29:25.470Z,8.70
2023-03-19T20:31:51.295Z,4.68
2023-03-19T20:34:32.379Z,6.40
2023-03-19T20:36:58.460Z,7.75
2023-03-19T20:39:24.418Z,7.43
2023-03-19T20:41:50.966Z,7.78
2023-03-19T20:44:21.455Z,5.63
2023-03-19T20:46:47.628Z,6.13
2023-03-19T20:49:13.940Z,6.22
2023-03-19T20:51:40.442Z,7.88
2023-03-19T20:54:06.546Z,7.85
2023-03-19T20:56:36.100Z,6.78
2023-03-19T20:59:01.837Z,4.85
2023-03-19T21:01:27.937Z,6.88
2023-03-19T21:03:56.756Z,4.07
2023-03-19T21:06:23.479Z,4.68
2023-03-19T21:08:51.154Z,5.30
2023-03-19T21:11:18.269Z,5.03
2023-03-19T21:13:44.682Z,6.07
2023-03-19T21:16:14.745Z,8.45
2023-03-19T21:18:40.535Z,5.95
2023-03-19T21:21:07.223Z,6.30
2023-03-19T21:23:34.806Z,7.18
2023-03-19T21:26:07.521Z,6.43
2023-03-19T21:28:36.763Z,5.43
2023-03-19T21:31:02.941Z,6.00
2023-03-19T21:33:30.155Z,6.53
2023-03-19T21:35:57.024Z,7.82
2023-03-19T21:38:23.142Z,5.93
2023-03-19T21:40:50.178Z,9.18
2023-03-19T21:43:18.436Z,4.22
2023-03-19T21:45:45.817Z,3.33
2023-03-19T21:48:20.367Z,4.65
2023-03-19T21:50:49.374Z,5.20
2023-03-19T21:53:18.860Z,4.32
2023-03-19T21:55:45.822Z,4.95
2023-03-19T21:58:12.623Z,6.35
2023-03-19T22:00:38.781Z,11.52
2023-03-19T22:03:05.012Z,5.53
2023-03-19T22:05:31.387Z,4.07
2023-03-19T22:07:57.423Z,4.85
2023-03-19T22:10:26.329Z,8.10
2023-03-19T22:12:52.867Z,4.13
2023-03-19T22:15:25.134Z,4.45
2023-03-19T22:17:50.996Z,7.38
2023-03-19T22:20:18.091Z,5.63
2023-03-19T22:22:44.019Z,5.97
2023-03-19T22:25:13.659Z,6.47
2023-03-19T22:27:44.661Z,7.10
2023-03-19T22:30:21.387Z,4.63
2023-03-19T22:32:56.736Z,6.03
2023-03-19T22:35:22.658Z,10.02
2023-03-19T22:37:48.501Z,6.70
2023-03-19T22:40:15.882Z,5.15
2023-03-19T22:42:42.428Z,5.10
2023-03-19T22:45:18.223Z,5.55
2023-03-19T22:47:44.888Z,5.85
2023-03-19T22:50:15.272Z,3.67
2023-03-19T22:52:41.516Z,7.13
2023-03-19T22:55:07.459Z,5.10
2023-03-19T22:57:33.190Z,5.75
2023-03-19T22:59:58.908Z,4.30
2023-03-19T23:02:24.683Z,4.85
2023-03-19T23:04:50.521Z,4.05
2023-03-19T23:07:16.222Z,4.18
2023-03-19T23:09:42.601Z,4.35
2023-03-19T23:14:34.133Z,7.90
2023-03-19T23:17:02.508Z,6.10
2023-03-19T23:19:30.371Z,7.78
2023-03-19T23:21:58.067Z,7.50
2023-03-19T23:24:24.775Z,4.63
2023-03-19T23:26:51.794Z,5.18
2023-03-19T23:29:18.933Z,5.32
2023-03-19T23:31:44.700Z,5.65
2023-03-19T23:34:11.144Z,7.28
2023-03-19T23:36:37.020Z,5.85
2023-03-19T23:39:03.388Z,6.45
2023-03-19T23:41:31.913Z,10.52
2023-03-19T23:44:00.884Z,4.60
2023-03-19T23:46:27.319Z,5.35
2023-03-19T23:48:53.322Z,6.32
2023-03-19T23:51:19.109Z,7.93
2023-03-19T23:53:45.726Z,6.15
2023-03-19T23:56:19.976Z,4.38
2023-03-19T23:58:46.559Z,6.15
